Wetterdaten: Woche 18.01.10 - 24.01.10 (KW3)
Datum Zeit Temp. A. Feuchte A. Luftdruck Regen Wind Richtung Taupunkt Windchill Windben
18.01.2010 00:00 -1,1 C 90 % 1022,0 hPa 0,0 l/m 0,8 km/h SO -2,6 C -1,1 C 8,0 km/h
18.01.2010 01:00 -0,9 C 90 % 1022,0 hPa 0,0 l/m 1,1 km/h O -2,3 C -0,9 C 5,2 km/h
18.01.2010 02:00 -0,6 C 90 % 1022,3 hPa 0,0 l/m 0,3 km/h N -2,0 C -0,6 C 2,0 km/h
18.01.2010 03:00 -0,4 C 91 % 1022,5 hPa 0,0 l/m 0,0 km/h N -1,7 C -0,4 C 0,0 km/h
18.01.2010 04:00 -0,3 C 91 % 1022,7 hPa 0,0 l/m 0,0 km/h N -1,6 C -0,3 C 0,0 km/h
18.01.2010 05:00 0,3 C 92 % 1022,9 hPa 0,0 l/m 0,7 km/h NW -0,9 C 0,3 C 5,6 km/h
18.01.2010 06:00 2,3 C 91 % 1023,0 hPa 0,0 l/m 5,4 km/h W-NW 1,0 C 2,3 C 17,3 km/h
18.01.2010 07:00 2,9 C 88 % 1023,3 hPa 0,0 l/m 6,1 km/h NW 1,0 C 2,7 C 16,1 km/h
18.01.2010 08:00 3,0 C 84 % 1023,8 hPa 0,8 l/m 3,8 km/h NW 0,5 C 3,0 C 9,6 km/h
18.01.2010 09:00 3,3 C 81 % 1024,0 hPa 3,9 l/m 4,1 km/h NW 0,4 C 3,3 C 10,5 km/h
18.01.2010 10:00 4,0 C 76 % 1024,3 hPa 1,6 l/m 4,9 km/h NW 0,2 C 4,0 C 10,5 km/h
18.01.2010 11:00 4,7 C 74 % 1024,1 hPa 2,9 l/m 6,4 km/h NW 0,4 C 4,1 C 13,7 km/h
18.01.2010 12:00 4,8 C 74 % 1024,0 hPa 2,9 l/m 5,8 km/h NW 0,6 C 4,8 C 14,1 km/h
18.01.2010 13:00 4,7 C 76 % 1023,7 hPa 2,9 l/m 5,4 km/h NW 0,8 C 4,7 C 12,9 km/h
18.01.2010 14:00 4,1 C 80 % 1024,2 hPa 2,1 l/m 6,0 km/h NW 0,9 C 3,8 C 12,5 km/h
18.01.2010 15:00 3,5 C 83 % 1024,5 hPa 1,6 l/m 3,8 km/h N-NW 0,8 C 3,5 C 8,4 km/h
18.01.2010 16:00 2,8 C 86 % 1024,6 hPa 0,8 l/m 1,7 km/h NW 0,6 C 2,8 C 4,8 km/h
18.01.2010 17:00 2,4 C 88 % 1024,8 hPa 0,8 l/m 2,4 km/h NW 0,6 C 2,4 C 6,8 km/h
18.01.2010 18:00 2,3 C 89 % 1025,1 hPa 1,0 l/m 2,1 km/h NO 0,6 C 2,3 C 5,2 km/h
18.01.2010 19:00 1,6 C 89 % 1025,5 hPa 2,1 l/m 2,2 km/h NO 0,0 C 1,6 C 5,6 km/h
18.01.2010 20:00 1,3 C 90 % 1025,6 hPa 0,8 l/m 1,3 km/h NW -0,2 C 1,3 C 4,8 km/h
18.01.2010 21:00 1,3 C 90 % 1025,5 hPa 1,0 l/m 0,4 km/h N -0,2 C 1,3 C 2,8 km/h
18.01.2010 22:00 1,3 C 91 % 1025,2 hPa 0,3 l/m 0,8 km/h N-NO 0,0 C 1,3 C 4,8 km/h
18.01.2010 23:00 1,7 C 91 % 1025,1 hPa 0,3 l/m 2,6 km/h W 0,4 C 1,7 C 7,6 km/h
19.01.2010 00:00 2,0 C 91 % 1024,7 hPa 0,3 l/m 3,2 km/h NW 0,7 C 2,0 C 7,2 km/h
19.01.2010 01:00 2,2 C 90 % 1024,6 hPa 0,0 l/m 2,0 km/h NW 0,7 C 2,2 C 6,8 km/h
19.01.2010 02:00 2,1 C 90 % 1024,7 hPa 0,3 l/m 2,6 km/h N-NW 0,6 C 2,1 C 6,0 km/h
19.01.2010 03:00 1,9 C 89 % 1024,5 hPa 0,5 l/m 1,8 km/h N-NW 0,3 C 1,9 C 5,6 km/h
19.01.2010 04:00 1,9 C 89 % 1024,3 hPa 0,3 l/m 2,0 km/h N-NW 0,3 C 1,9 C 5,6 km/h
19.01.2010 05:00 2,1 C 89 % 1024,0 hPa 0,3 l/m 3,7 km/h NW 0,5 C 2,1 C 9,7 km/h
19.01.2010 06:00 2,2 C 88 % 1023,7 hPa 0,0 l/m 3,6 km/h NW 0,4 C 2,2 C 8,9 km/h
19.01.2010 07:00 2,2 C 87 % 1023,7 hPa 0,3 l/m 3,6 km/h NW 0,3 C 2,2 C 8,4 km/h
19.01.2010 08:00 2,3 C 85 % 1023,7 hPa 0,0 l/m 3,6 km/h NW 0,1 C 2,3 C 9,3 km/h
19.01.2010 09:00 2,6 C 83 % 1023,7 hPa 0,3 l/m 4,3 km/h W 0,1 C 2,6 C 11,7 km/h
19.01.2010 10:00 3,1 C 82 % 1023,7 hPa 0,3 l/m 4,5 km/h W-NW 0,2 C 3,1 C 12,1 km/h
19.01.2010 11:00 3,3 C 80 % 1023,2 hPa 0,3 l/m 4,6 km/h NW 0,2 C 3,3 C 11,7 km/h
19.01.2010 12:00 3,4 C 80 % 1022,6 hPa 0,0 l/m 3,6 km/h NW 0,3 C 3,4 C 8,4 km/h
19.01.2010 13:00 4,0 C 76 % 1022,2 hPa 0,3 l/m 3,3 km/h W-NW 0,1 C 4,0 C 8,8 km/h
19.01.2010 14:00 4,1 C 73 % 1021,9 hPa 0,0 l/m 2,7 km/h N-NW -0,3 C 4,1 C 8,0 km/h
19.01.2010 15:00 3,8 C 74 % 1021,8 hPa 0,0 l/m 2,1 km/h N-NO -0,5 C 3,8 C 6,0 km/h
19.01.2010 16:00 3,4 C 76 % 1021,8 hPa 0,0 l/m 0,7 km/h NO -0,5 C 3,4 C 3,6 km/h
19.01.2010 17:00 2,6 C 79 % 1021,8 hPa 0,0 l/m 0,0 km/h N -0,6 C 2,6 C 1,2 km/h
19.01.2010 18:00 1,9 C 82 % 1021,5 hPa 0,0 l/m 0,0 km/h N -0,9 C 1,9 C 0,0 km/h
19.01.2010 19:00 1,4 C 83 % 1021,3 hPa 0,0 l/m 0,0 km/h N -1,1 C 1,4 C 0,8 km/h
19.01.2010 20:00 1,3 C 85 % 1021,1 hPa 0,0 l/m 0,5 km/h W-SW -0,9 C 1,3 C 3,2 km/h
19.01.2010 21:00 1,2 C 86 % 1020,8 hPa 0,0 l/m 0,0 km/h N -0,9 C 1,2 C 0,4 km/h
19.01.2010 22:00 1,0 C 87 % 1020,7 hPa 0,0 l/m 0,1 km/h N -1,0 C 1,0 C 2,0 km/h
19.01.2010 23:00 0,8 C 87 % 1020,6 hPa 0,0 l/m 0,0 km/h N -1,1 C 0,8 C 0,0 km/h
20.01.2010 00:00 0,6 C 88 % 1019,8 hPa 0,0 l/m 0,4 km/h SW -1,2 C 0,6 C 2,4 km/h
20.01.2010 01:00 0,8 C 89 % 1019,5 hPa 0,0 l/m 0,1 km/h N -0,9 C 0,8 C 2,0 km/h
20.01.2010 02:00 0,3 C 89 % 1019,6 hPa 0,0 l/m 0,0 km/h N -1,4 C 0,3 C 0,4 km/h
20.01.2010 03:00 0,1 C 89 % 1019,2 hPa 0,0 l/m 0,3 km/h SW -1,5 C 0,1 C 1,6 km/h
20.01.2010 04:00 0,3 C 90 % 1019,0 hPa 0,0 l/m 0,0 km/h N -1,2 C 0,3 C 0,4 km/h
20.01.2010 05:00 0,3 C 90 % 1018,9 hPa 0,0 l/m 0,0 km/h N -1,1 C 0,3 C 0,0 km/h
20.01.2010 06:00 0,4 C 90 % 1018,8 hPa 0,0 l/m 0,0 km/h N -1,0 C 0,4 C 0,0 km/h
20.01.2010 07:00 0,6 C 91 % 1018,8 hPa 0,0 l/m 0,0 km/h N -0,7 C 0,6 C 0,8 km/h
20.01.2010 08:00 0,4 C 91 % 1018,7 hPa 0,0 l/m 0,2 km/h N -0,9 C 0,4 C 2,0 km/h
20.01.2010 09:00 0,3 C 91 % 1018,8 hPa 0,3 l/m 1,1 km/h NO -1,0 C 0,3 C 4,4 km/h
20.01.2010 10:00 0,6 C 90 % 1018,8 hPa 0,0 l/m 2,1 km/h N-NO -0,8 C 0,6 C 6,0 km/h
20.01.2010 11:00 0,9 C 87 % 1018,3 hPa 0,0 l/m 1,5 km/h NO -1,0 C 0,9 C 5,2 km/h
20.01.2010 12:00 1,3 C 81 % 1017,6 hPa 0,0 l/m 2,9 km/h NO -1,7 C 1,3 C 7,6 km/h
20.01.2010 13:00 1,6 C 78 % 1016,9 hPa 0,0 l/m 2,7 km/h NO -1,9 C 1,6 C 6,8 km/h
20.01.2010 14:00 1,1 C 78 % 1016,8 hPa 0,0 l/m 5,7 km/h NO -2,3 C 1,1 C 11,3 km/h
20.01.2010 15:00 -0,1 C 77 % 1016,9 hPa 0,0 l/m 4,2 km/h NO -3,6 C -0,1 C 10,1 km/h
20.01.2010 16:00 0,0 C 77 % 1017,0 hPa 0,0 l/m 2,3 km/h NO -3,6 C 0,0 C 6,8 km/h
20.01.2010 17:00 -0,8 C 76 % 1017,3 hPa 0,0 l/m 4,5 km/h O-NO -4,5 C -0,8 C 9,3 km/h
20.01.2010 18:00 -1,4 C 76 % 1017,3 hPa 0,0 l/m 3,2 km/h NO -5,1 C -1,4 C 7,6 km/h
20.01.2010 19:00 -1,5 C 77 % 1017,4 hPa 0,0 l/m 4,9 km/h NO -5,0 C -1,5 C 10,5 km/h
20.01.2010 20:00 -1,9 C 77 % 1017,4 hPa 0,0 l/m 5,2 km/h NO -5,3 C -1,9 C 11,7 km/h
20.01.2010 21:00 -2,4 C 78 % 1017,5 hPa 0,0 l/m 3,7 km/h NO -5,7 C -2,4 C 9,3 km/h
20.01.2010 22:00 -2,9 C 78 % 1017,8 hPa 0,0 l/m 5,3 km/h N-NO -6,3 C -2,9 C 14,1 km/h
20.01.2010 23:00 -3,2 C 76 % 1018,2 hPa 0,0 l/m 6,2 km/h N-NW -6,8 C -3,4 C 14,5 km/h
21.01.2010 00:00 -3,7 C 75 % 1018,3 hPa 0,0 l/m 6,1 km/h N-NW -7,5 C -3,9 C 16,1 km/h
21.01.2010 01:00 -4,1 C 77 % 1018,6 hPa 0,0 l/m 5,7 km/h N -7,5 C -4,2 C 13,7 km/h
21.01.2010 02:00 -4,6 C 80 % 1019,2 hPa 0,0 l/m 4,6 km/h N -7,6 C -4,6 C 10,5 km/h
21.01.2010 03:00 -4,9 C 82 % 1019,4 hPa 0,0 l/m 4,7 km/h N-NW -7,4 C -4,9 C 12,1 km/h
21.01.2010 04:00 -4,9 C 83 % 1019,7 hPa 0,0 l/m 3,8 km/h NW -7,4 C -4,9 C 10,1 km/h
21.01.2010 05:00 -5,2 C 80 % 1020,3 hPa 0,0 l/m 5,2 km/h N-NO -8,2 C -5,2 C 12,5 km/h
21.01.2010 06:00 -5,6 C 79 % 1020,9 hPa 0,0 l/m 4,6 km/h O-NO -8,6 C -5,6 C 12,1 km/h
21.01.2010 07:00 -6,3 C 83 % 1021,6 hPa 0,0 l/m 3,3 km/h NO -8,7 C -6,3 C 8,9 km/h
21.01.2010 08:00 -6,5 C 84 % 1022,4 hPa 0,0 l/m 4,3 km/h NO -8,7 C -6,5 C 9,6 km/h
21.01.2010 09:00 -6,7 C 86 % 1023,3 hPa 0,0 l/m 2,4 km/h NO -8,7 C -6,7 C 7,2 km/h
21.01.2010 10:00 -6,4 C 86 % 1024,1 hPa 0,0 l/m 2,7 km/h N-NW -8,4 C -6,4 C 8,1 km/h
21.01.2010 11:00 -6,2 C 86 % 1024,4 hPa 0,0 l/m 2,8 km/h N-NW -8,2 C -6,2 C 7,6 km/h
21.01.2010 12:00 -5,9 C 85 % 1024,3 hPa 0,0 l/m 1,8 km/h NO -8,0 C -5,9 C 6,0 km/h
21.01.2010 13:00 -5,2 C 85 % 1024,2 hPa 0,0 l/m 1,6 km/h N-NO -7,3 C -5,2 C 5,2 km/h
21.01.2010 14:00 -5,0 C 84 % 1024,3 hPa 0,0 l/m 1,9 km/h N-NO -7,3 C -5,0 C 5,2 km/h
21.01.2010 15:00 -5,5 C 84 % 1024,9 hPa 0,0 l/m 2,6 km/h N-NW -7,8 C -5,5 C 5,6 km/h
21.01.2010 16:00 -5,9 C 83 % 1025,5 hPa 0,0 l/m 2,0 km/h NO -8,3 C -5,9 C 5,6 km/h
21.01.2010 17:00 -6,3 C 83 % 1026,0 hPa 0,0 l/m 2,3 km/h N-NW -8,7 C -6,3 C 7,2 km/h
21.01.2010 18:00 -6,8 C 83 % 1026,8 hPa 0,0 l/m 3,2 km/h NW -9,1 C -6,8 C 8,9 km/h
21.01.2010 19:00 -6,9 C 84 % 1027,1 hPa 0,0 l/m 3,3 km/h NW -9,1 C -6,9 C 7,2 km/h
21.01.2010 20:00 -6,9 C 85 % 1027,4 hPa 0,0 l/m 4,3 km/h N-NW -9,0 C -6,9 C 8,5 km/h
21.01.2010 21:00 -7,0 C 85 % 1027,6 hPa 0,0 l/m 4,2 km/h NW -9,1 C -7,0 C 8,9 km/h
21.01.2010 22:00 -7,0 C 85 % 1027,7 hPa 0,0 l/m 4,2 km/h NW -9,2 C -7,0 C 9,3 km/h
21.01.2010 23:00 -7,0 C 84 % 1027,7 hPa 0,0 l/m 3,6 km/h NW -9,3 C -7,0 C 8,4 km/h
22.01.2010 00:00 -6,9 C 83 % 1027,7 hPa 0,0 l/m 4,4 km/h NW -9,3 C -6,9 C 10,5 km/h
22.01.2010 01:00 -6,9 C 82 % 1027,6 hPa 0,0 l/m 4,0 km/h NW -9,4 C -6,9 C 8,8 km/h
22.01.2010 02:00 -6,9 C 82 % 1027,9 hPa 0,0 l/m 2,5 km/h NW -9,4 C -6,9 C 8,4 km/h
22.01.2010 03:00 -6,9 C 82 % 1027,9 hPa 0,0 l/m 3,6 km/h NW -9,4 C -6,9 C 9,3 km/h
22.01.2010 04:00 -6,8 C 82 % 1028,2 hPa 0,0 l/m 2,9 km/h NW -9,3 C -6,8 C 8,4 km/h
22.01.2010 05:00 -6,8 C 82 % 1028,3 hPa 0,0 l/m 3,0 km/h NW -9,4 C -6,8 C 8,4 km/h
22.01.2010 06:00 -6,8 C 81 % 1028,4 hPa 0,0 l/m 4,1 km/h NW -9,4 C -6,8 C 9,7 km/h
22.01.2010 07:00 -6,8 C 82 % 1028,6 hPa 0,0 l/m 4,9 km/h N-NW -9,4 C -6,8 C 11,3 km/h
22.01.2010 08:00 -6,7 C 81 % 1028,8 hPa 0,0 l/m 4,5 km/h NW -9,4 C -6,7 C 10,1 km/h
22.01.2010 09:00 -6,3 C 80 % 1029,1 hPa 0,0 l/m 5,5 km/h N-NW -9,2 C -6,3 C 12,1 km/h
22.01.2010 10:00 -5,7 C 78 % 1029,3 hPa 0,0 l/m 5,2 km/h NW -8,8 C -5,7 C 13,7 km/h
22.01.2010 11:00 -5,4 C 78 % 1029,1 hPa 0,0 l/m 5,6 km/h NW -8,6 C -5,4 C 12,9 km/h
22.01.2010 12:00 -4,8 C 77 % 1028,5 hPa 0,0 l/m 6,5 km/h NW -8,1 C -5,3 C 15,3 km/h
22.01.2010 13:00 -4,5 C 76 % 1028,1 hPa 0,0 l/m 6,8 km/h N-NW -8,0 C -5,2 C 17,3 km/h
22.01.2010 14:00 -4,6 C 74 % 1028,2 hPa 0,0 l/m 6,9 km/h N-NW -8,5 C -5,2 C 19,7 km/h
22.01.2010 15:00 -4,4 C 71 % 1028,6 hPa 0,0 l/m 6,6 km/h N-NO -8,9 C -5,1 C 17,3 km/h
22.01.2010 16:00 -4,9 C 72 % 1028,9 hPa 0,0 l/m 5,6 km/h NW -9,2 C -4,9 C 12,9 km/h
22.01.2010 17:00 -5,5 C 75 % 1029,2 hPa 0,0 l/m 2,9 km/h N-NW -9,3 C -5,5 C 9,2 km/h
22.01.2010 18:00 -5,1 C 78 % 1029,5 hPa 0,0 l/m 3,4 km/h N-NW -8,3 C -5,1 C 9,7 km/h
22.01.2010 19:00 -5,1 C 77 % 1029,9 hPa 0,0 l/m 2,9 km/h N-NO -8,6 C -5,1 C 7,6 km/h
22.01.2010 20:00 -5,6 C 76 % 1030,3 hPa 0,0 l/m 3,1 km/h NO -9,2 C -5,6 C 7,6 km/h
22.01.2010 21:00 -5,9 C 74 % 1030,6 hPa 0,0 l/m 3,4 km/h NO -9,7 C -5,9 C 8,9 km/h
22.01.2010 22:00 -6,6 C 74 % 1030,9 hPa 0,0 l/m 3,8 km/h N -10,4 C -6,6 C 10,1 km/h
22.01.2010 23:00 -6,9 C 75 % 1031,0 hPa 0,0 l/m 2,9 km/h NO -10,7 C -6,9 C 8,0 km/h
23.01.2010 00:00 -7,2 C 75 % 1030,8 hPa 0,0 l/m 1,7 km/h NO -10,8 C -7,2 C 6,4 km/h
23.01.2010 01:00 -7,3 C 76 % 1030,4 hPa 0,0 l/m 1,2 km/h NO -10,8 C -7,3 C 4,8 km/h
23.01.2010 02:00 -7,5 C 77 % 1030,5 hPa 0,0 l/m 0,4 km/h N -10,8 C -7,5 C 3,2 km/h
23.01.2010 03:00 -7,9 C 79 % 1030,5 hPa 0,0 l/m 0,1 km/h N -10,9 C -7,9 C 1,6 km/h
23.01.2010 04:00 -7,8 C 79 % 1030,6 hPa 0,0 l/m 0,1 km/h N -10,7 C -7,8 C 1,6 km/h
23.01.2010 05:00 -7,7 C 80 % 1030,6 hPa 0,0 l/m 0,1 km/h N -10,6 C -7,7 C 0,8 km/h
23.01.2010 06:00 -7,6 C 79 % 1030,6 hPa 0,0 l/m 0,1 km/h N -10,6 C -7,6 C 1,6 km/h
23.01.2010 07:00 -8,0 C 80 % 1030,6 hPa 0,0 l/m 0,9 km/h O-SO -10,8 C -8,0 C 4,0 km/h
23.01.2010 08:00 -8,2 C 81 % 1031,0 hPa 0,0 l/m 0,4 km/h O-SO -10,8 C -8,2 C 2,8 km/h
23.01.2010 09:00 -8,2 C 81 % 1031,2 hPa 0,0 l/m 1,4 km/h O-SO -10,9 C -8,2 C 4,8 km/h
23.01.2010 10:00 -8,4 C 81 % 1031,3 hPa 0,0 l/m 1,7 km/h O-SO -11,1 C -8,4 C 5,2 km/h
23.01.2010 11:00 -8,0 C 80 % 1030,8 hPa 0,0 l/m 1,5 km/h O -10,9 C -8,0 C 5,6 km/h
23.01.2010 12:00 -7,5 C 78 % 1030,1 hPa 0,0 l/m 2,3 km/h O -10,6 C -7,5 C 5,6 km/h
23.01.2010 13:00 -7,0 C 78 % 1029,2 hPa 0,0 l/m 2,5 km/h O -10,2 C -7,0 C 6,0 km/h
23.01.2010 14:00 -6,8 C 76 % 1028,9 hPa 0,0 l/m 2,6 km/h O -10,2 C -6,8 C 5,2 km/h
23.01.2010 15:00 -6,6 C 75 % 1029,0 hPa 0,0 l/m 1,3 km/h O-SO -10,3 C -6,6 C 4,4 km/h
23.01.2010 16:00 -7,2 C 75 % 1029,2 hPa 0,0 l/m 0,7 km/h N -10,9 C -7,2 C 3,2 km/h
23.01.2010 17:00 -8,7 C 76 % 1029,4 hPa 0,0 l/m 0,0 km/h N -12,2 C -8,7 C 0,4 km/h
23.01.2010 18:00 -10,3 C 79 % 1029,7 hPa 0,0 l/m 0,0 km/h N -13,3 C -10,3 C 0,0 km/h
23.01.2010 19:00 -11,6 C 80 % 1030,2 hPa 0,0 l/m 0,0 km/h N -14,3 C -11,6 C 0,0 km/h
23.01.2010 20:00 -11,9 C 83 % 1030,0 hPa 0,0 l/m 0,0 km/h N -14,2 C -11,9 C 0,0 km/h
23.01.2010 21:00 -11,7 C 84 % 1030,2 hPa 0,0 l/m 0,0 km/h N -13,8 C -11,7 C 0,4 km/h
23.01.2010 22:00 -12,1 C 84 % 1030,3 hPa 0,0 l/m 0,0 km/h N -14,2 C -12,1 C 0,0 km/h
23.01.2010 23:00 -12,6 C 85 % 1030,3 hPa 0,0 l/m 0,0 km/h N -14,6 C -12,6 C 2,4 km/h
24.01.2010 00:00 -11,8 C 86 % 1030,1 hPa 0,0 l/m 0,0 km/h N -13,7 C -11,8 C 2,4 km/h
24.01.2010 01:00 -10,9 C 87 % 1029,9 hPa 0,0 l/m 0,0 km/h N -12,6 C -10,9 C 1,6 km/h
24.01.2010 02:00 -9,6 C 88 % 1029,7 hPa 0,0 l/m 0,0 km/h N -11,2 C -9,6 C 0,0 km/h
24.01.2010 03:00 -9,1 C 88 % 1029,6 hPa 0,0 l/m 0,0 km/h N -10,7 C -9,1 C 0,8 km/h
24.01.2010 04:00 -8,9 C 88 % 1029,9 hPa 0,0 l/m 0,0 km/h N -10,5 C -8,9 C 1,6 km/h
24.01.2010 05:00 -8,8 C 88 % 1030,3 hPa 0,0 l/m 0,0 km/h N -10,4 C -8,8 C 0,8 km/h
24.01.2010 06:00 -8,8 C 88 % 1030,6 hPa 0,0 l/m 0,0 km/h N -10,4 C -8,8 C 1,6 km/h
24.01.2010 07:00 -8,7 C 88 % 1030,8 hPa 0,0 l/m 0,0 km/h N -10,3 C -8,7 C 2,4 km/h
24.01.2010 08:00 -8,6 C 88 % 1031,3 hPa 0,0 l/m 0,0 km/h N -10,2 C -8,6 C 1,6 km/h
24.01.2010 09:00 -8,1 C 88 % 1031,6 hPa 0,0 l/m 0,0 km/h N -9,7 C -8,1 C 1,6 km/h
24.01.2010 10:00 -7,3 C 88 % 1031,7 hPa 0,0 l/m 0,0 km/h O-SO -8,9 C -7,3 C 0,0 km/h
24.01.2010 11:00 -6,0 C 88 % 1031,6 hPa 0,0 l/m 3,2 km/h O-SO -7,7 C -6,0 C 12,1 km/h
24.01.2010 12:00 -5,3 C 85 % 1031,3 hPa 0,0 l/m 4,0 km/h O-SO -7,4 C -5,3 C 10,5 km/h
24.01.2010 13:00 -4,7 C 83 % 1030,7 hPa 0,0 l/m 3,2 km/h O-SO -7,2 C -4,7 C 11,3 km/h
24.01.2010 14:00 -4,4 C 81 % 1030,5 hPa 0,0 l/m 3,2 km/h O-SO -7,2 C -4,4 C 17,7 km/h
24.01.2010 15:00 -4,4 C 82 % 1030,9 hPa 0,0 l/m 4,8 km/h O-SO -6,9 C -4,4 C 13,7 km/h
24.01.2010 16:00 -4,4 C 82 % 1031,2 hPa 0,0 l/m 4,8 km/h O-SO -6,9 C -4,4 C 16,1 km/h
24.01.2010 17:00 -4,6 C 81 % 1031,4 hPa 0,0 l/m 4,8 km/h O-SO -7,4 C -4,6 C 16,1 km/h
24.01.2010 18:00 -4,7 C 80 % 1031,8 hPa 0,0 l/m 4,8 km/h O-SO -7,6 C -4,7 C 12,1 km/h
24.01.2010 19:00 -5,0 C 81 % 1032,0 hPa 0,0 l/m 4,8 km/h O-SO -7,7 C -5,0 C 11,3 km/h
24.01.2010 20:00 -5,3 C 82 % 1032,1 hPa 0,0 l/m 4,8 km/h O-SO -8,0 C -5,3 C 16,1 km/h
24.01.2010 21:00 -5,0 C 81 % 1032,2 hPa 0,0 l/m 3,2 km/h S-SO -7,8 C -5,0 C 10,5 km/h
24.01.2010 22:00 -4,8 C 79 % 1032,2 hPa 0,0 l/m 3,2 km/h SO -7,9 C -4,8 C 9,6 km/h
24.01.2010 23:00 -5,0 C 79 % 1032,3 hPa 0,0 l/m 3,2 km/h SO -8,1 C -5,0 C 12,1 km/h
Min-Datum _ 23.01.10 22.01.10 20.01.10 - 18.01.10 - 23.01.10 23.01.10 18.01.10
_ Min-Zeit 23:30 15:15 13:45 - 02:30 - 23:00 23:00 02:30
Minimum _ -12,7 C 70 % 1016,7 hPa - 0,0 km/h - -14,7 C -12,7 C 0,0 km/h
Max-Datum _ 18.01.10 18.01.10 24.01.10 18.01.10 18.01.10 - 18.01.10 18.01.10 18.01.10
_ Max-Zeit 12:45 05:30 21:30 09:01 11:45 - 07:00 12:45 06:15
Maximum _ 5,1 C 92 % 1032,3 hPa 3,9 l/m 8,9 km/h
NW
- 1,2 C 5,1 C 27,4 km/h
NW
Durchschnitt _ -3,3 C 82 % 1025,5 hPa #28,6 l/m 2,6 km/h NW -5,9 C -3,3 C 7,2 km/h